Time;durP1;ratioP1;P1;durP2;ratioP2;P2;SDS_P1;SDS_P2;PMS_P1;PMS_P2;Temp;Humidity;BMP_temperature;BMP_pressure;BME280_temperature;BME280_humidity;BME280_pressure;Samples;Min_cycle;Max_cycle;Signal;HPM_P1;HPM_P2
2023/09/18 00:00:09;;;;;;;9.40;6.10;;;;;;;22.09;65.30;100156.22;680451;29;1289;-95
2023/09/18 00:00:35;;;;;;;8.15;5.95;;;;;;;22.14;65.37;100166.72;677440;29;1416;-95
2023/09/18 00:00:56;;;;;;;8.77;6.50;;;;;;;22.18;65.52;100179.84;677827;29;1256;-95
2023/09/18 00:01:19;;;;;;;9.57;6.90;;;;;;;22.19;65.57;100172.75;675175;29;1286;-95
2023/09/18 00:01:40;;;;;;;7.82;6.50;;;;;;;22.17;65.47;100170.16;675244;29;1314;-95
2023/09/18 00:02:01;;;;;;;8.20;6.43;;;;;;;22.16;65.68;100165.75;677873;29;1202;-95
2023/09/18 00:02:22;;;;;;;7.97;6.30;;;;;;;22.17;65.20;100158.63;680456;29;1259;-95
2023/09/18 00:02:43;;;;;;;8.18;6.00;;;;;;;22.14;65.48;100156.09;677927;29;1465;-95
2023/09/18 00:03:03;;;;;;;8.57;6.13;;;;;;;22.17;65.53;100158.63;675319;29;1241;-95
2023/09/18 00:03:24;;;;;;;8.33;6.30;;;;;;;22.16;65.67;100165.75;680282;28;1253;-96
2023/09/18 00:03:45;;;;;;;8.43;6.47;;;;;;;22.16;65.49;100152.47;680561;29;1171;-95
2023/09/18 00:04:06;;;;;;;7.95;6.22;;;;;;;22.12;65.32;100147.31;672457;29;1219;-95
2023/09/18 00:04:27;;;;;;;8.15;6.20;;;;;;;22.13;65.26;100143.72;680413;29;1307;-96
2023/09/18 00:04:48;;;;;;;7.88;6.07;;;;;;;22.22;65.41;100159.38;683068;29;1201;-95
2023/09/18 00:05:09;;;;;;;7.70;6.00;;;;;;;22.18;65.22;100152.41;677698;29;1293;-95
2023/09/18 00:05:31;;;;;;;8.27;6.00;;;;;;;22.17;65.40;100151.56;675400;29;1181;-95
2023/09/18 00:05:52;;;;;;;9.40;6.15;;;;;;;22.15;65.37;100141.88;677792;29;1227;-95
2023/09/18 00:06:13;;;;;;;9.55;6.03;;;;;;;22.18;65.43;100153.28;674707;29;1235;-95
2023/09/18 00:06:33;;;;;;;9.25;6.35;;;;;;;22.15;65.29;100137.44;683195;29;1183;-95
2023/09/18 00:06:54;;;;;;;10.18;6.47;;;;;;;22.21;65.52;100154.09;683112;29;1278;-95
2023/09/18 00:07:15;;;;;;;9.90;6.60;;;;;;;22.15;65.33;100148.06;674716;29;1409;-95
2023/09/18 00:07:35;;;;;;;9.50;6.60;;;;;;;22.14;65.35;100129.50;677884;29;1198;-95
2023/09/18 00:07:56;;;;;;;7.88;6.45;;;;;;;22.21;65.26;100149.66;683113;29;1200;-95
2023/09/18 00:08:19;;;;;;;8.50;6.63;;;;;;;22.24;65.49;100154.88;677715;29;1167;-95
2023/09/18 00:08:40;;;;;;;8.43;6.50;;;;;;;22.17;65.47;100140.03;679333;29;1277;-95
2023/09/18 00:09:00;;;;;;;8.52;6.35;;;;;;;22.15;65.44;100139.22;677887;29;1172;-95
2023/09/18 00:09:21;;;;;;;9.25;6.10;;;;;;;22.18;65.22;100147.97;677686;29;1158;-96
2023/09/18 00:09:42;;;;;;;9.32;6.05;;;;;;;22.18;65.05;100145.31;674917;29;1160;-95
2023/09/18 00:10:03;;;;;;;11.10;6.20;;;;;;;22.22;65.50;100147.88;677311;29;1151;-96
2023/09/18 00:10:26;;;;;;;11.50;6.65;;;;;;;22.12;65.33;100132.22;680584;29;1150;-94
2023/09/18 00:10:52;;;;;;;12.25;6.97;;;;;;;22.12;65.64;100129.56;672656;29;1310;-95
2023/09/18 00:11:12;;;;;;;10.25;7.07;;;;;;;22.16;65.38;100136.53;672507;29;1368;-94
2023/09/18 00:11:34;;;;;;;11.73;6.80;;;;;;;22.18;65.29;100139.13;675287;29;1311;-95
2023/09/18 00:11:55;;;;;;;10.85;6.70;;;;;;;22.16;65.51;100133.88;675411;29;1211;-95
2023/09/18 00:12:16;;;;;;;10.68;6.72;;;;;;;22.18;65.45;100136.47;672346;29;1207;-95
2023/09/18 00:12:38;;;;;;;8.57;6.80;;;;;;;22.13;65.41;100122.47;677707;29;1148;-95
2023/09/18 00:12:58;;;;;;;9.38;7.15;;;;;;;22.19;65.33;100131.09;677111;29;1379;-95
2023/09/18 00:13:20;;;;;;;9.65;7.13;;;;;;;22.23;65.45;100145.16;672603;29;1261;-94
2023/09/18 00:13:41;;;;;;;9.55;6.90;;;;;;;22.18;65.27;100126.72;675180;29;1281;-95
2023/09/18 00:14:03;;;;;;;9.43;6.77;;;;;;;22.18;65.37;100126.72;674570;29;1271;-95
2023/09/18 00:14:25;;;;;;;8.93;6.75;;;;;;;22.12;65.25;100112.75;675115;29;1231;-96
2023/09/18 00:14:50;;;;;;;8.57;6.50;;;;;;;22.21;65.27;100133.72;677316;29;1413;-95
2023/09/18 00:15:11;;;;;;;7.10;6.10;;;;;;;22.14;65.26;100119.75;670146;29;1290;-95
2023/09/18 00:15:32;;;;;;;7.20;5.90;;;;;;;22.18;65.31;100126.72;675149;29;1368;-96
2023/09/18 00:15:55;;;;;;;7.28;5.80;;;;;;;22.16;65.24;100125.91;677365;29;1232;-95
2023/09/18 00:16:17;;;;;;;6.60;5.30;;;;;;;22.13;65.33;100120.66;675126;29;1217;-95
2023/09/18 00:16:38;;;;;;;7.75;5.40;;;;;;;22.00;65.58;100111.34;675333;29;1253;-95
2023/09/18 00:17:00;;;;;;;8.15;5.60;;;;;;;21.94;65.60;100111.53;677854;29;1215;-95
2023/09/18 00:17:23;;;;;;;8.32;5.80;;;;;;;21.97;65.78;100116.75;675036;29;1224;-95
2023/09/18 00:17:44;;;;;;;9.55;6.05;;;;;;;21.93;65.80;100107.13;675265;29;1239;-95
2023/09/18 00:18:05;;;;;;;9.10;6.00;;;;;;;21.88;65.94;100102.81;677726;29;1207;-95
2023/09/18 00:18:25;;;;;;;9.15;5.97;;;;;;;21.95;65.81;100127.41;675086;29;1255;-95
2023/09/18 00:18:46;;;;;;;6.53;5.53;;;;;;;21.89;65.98;100109.88;677879;29;1273;-95
2023/09/18 00:19:07;;;;;;;6.80;5.40;;;;;;;21.89;66.02;100115.19;682927;29;1336;-94
2023/09/18 00:19:28;;;;;;;8.90;5.75;;;;;;;21.88;66.12;100107.28;682932;28;1322;-95
2023/09/18 00:19:51;;;;;;;9.82;6.28;;;;;;;21.85;66.15;100107.34;680358;29;1260;-96
2023/09/18 00:20:13;;;;;;;9.23;6.60;;;;;;;21.91;66.22;100107.16;677601;29;1235;-94
2023/09/18 00:20:34;;;;;;;8.20;6.32;;;;;;;21.89;66.10;100112.53;675281;29;1242;-95
2023/09/18 00:20:55;;;;;;;7.97;5.80;;;;;;;21.88;66.21;100108.13;680449;29;1218;-96
2023/09/18 00:21:16;;;;;;;8.15;5.95;;;;;;;21.85;66.17;100102.91;679270;29;1163;-95
2023/09/18 00:21:37;;;;;;;6.75;6.00;;;;;;;21.89;66.18;100112.53;672669;29;1175;-95
2023/09/18 00:22:00;;;;;;;6.88;5.93;;;;;;;21.88;66.23;100101.97;675126;29;1451;-95
2023/09/18 00:22:21;;;;;;;7.22;6.00;;;;;;;21.88;66.24;100110.78;679928;29;1383;-95
2023/09/18 00:22:42;;;;;;;8.52;6.05;;;;;;;21.87;66.03;100109.03;677851;29;1297;-96
2023/09/18 00:23:03;;;;;;;8.40;5.90;;;;;;;21.84;66.08;100101.19;677644;29;1184;-96
2023/09/18 00:23:23;;;;;;;8.70;6.10;;;;;;;21.85;66.11;100108.22;680336;29;1294;-95
2023/09/18 00:23:45;;;;;;;7.78;6.18;;;;;;;21.81;66.26;100101.25;674969;29;1152;-95
2023/09/18 00:24:08;;;;;;;10.80;6.63;;;;;;;21.81;66.27;100103.91;675047;29;1378;-96
2023/09/18 00:24:28;;;;;;;13.13;7.20;;;;;;;21.90;66.38;100116.06;677194;29;1340;-95
2023/09/18 00:24:49;;;;;;;13.00;7.13;;;;;;;21.90;66.33;100121.38;677361;29;1360;-95
2023/09/18 00:25:10;;;;;;;9.30;6.88;;;;;;;21.88;66.17;100112.59;674765;29;1151;-95
2023/09/18 00:25:31;;;;;;;7.13;6.13;;;;;;;21.87;66.11;100111.72;672481;29;1273;-95
2023/09/18 00:25:52;;;;;;;7.30;6.07;;;;;;;21.89;66.29;100109.88;677404;29;1214;-95
2023/09/18 00:26:13;;;;;;;8.45;6.38;;;;;;;21.89;66.20;100111.66;674616;29;1210;-95
2023/09/18 00:26:36;;;;;;;14.38;7.18;;;;;;;21.88;66.32;100113.44;675104;29;1404;-95
2023/09/18 00:26:57;;;;;;;14.50;7.03;;;;;;;21.86;66.33;100114.41;675108;29;1375;-95
2023/09/18 00:27:18;;;;;;;13.65;6.45;;;;;;;21.89;66.42;100115.19;672484;29;1309;-95
2023/09/18 00:27:39;;;;;;;7.45;6.18;;;;;;;21.88;66.30;100117.91;675351;29;1273;-96
2023/09/18 00:28:00;;;;;;;8.63;6.30;;;;;;;21.91;66.11;100124.00;672467;29;1227;-94
2023/09/18 00:28:20;;;;;;;9.90;6.80;;;;;;;21.87;66.17;100108.16;675149;29;1290;-95
2023/09/18 00:28:41;;;;;;;9.70;6.67;;;;;;;21.86;65.98;100112.63;677861;29;1226;-95
2023/09/18 00:29:02;;;;;;;7.93;6.25;;;;;;;21.90;66.19;100111.59;679959;29;1155;-95
2023/09/18 00:29:23;;;;;;;7.05;6.35;;;;;;;21.87;66.34;100106.38;680330;29;1279;-94
2023/09/18 00:29:44;;;;;;;7.13;6.10;;;;;;;21.89;66.11;100107.22;677653;29;1349;-95
2023/09/18 00:30:06;;;;;;;7.90;6.38;;;;;;;21.87;66.05;100105.50;680168;29;1356;-95
2023/09/18 00:30:27;;;;;;;8.65;6.13;;;;;;;21.81;66.28;100093.28;677673;29;1376;-95
2023/09/18 00:30:49;;;;;;;8.63;6.20;;;;;;;21.92;66.22;100114.22;677790;29;1174;-96
2023/09/18 00:31:10;;;;;;;8.82;6.05;;;;;;;21.97;66.26;100100.78;677648;29;1206;-95
2023/09/18 00:31:31;;;;;;;8.53;6.40;;;;;;;22.04;65.67;100110.31;672146;29;1305;-94
2023/09/18 00:31:52;;;;;;;8.57;6.38;;;;;;;22.05;65.87;100125.34;677271;29;1226;-95
2023/09/18 00:32:13;;;;;;;7.67;6.37;;;;;;;21.96;65.91;100109.69;674931;29;1151;-95
2023/09/18 00:32:33;;;;;;;6.97;6.10;;;;;;;21.93;65.88;100115.09;677850;29;1176;-95
2023/09/18 00:32:54;;;;;;;8.60;6.75;;;;;;;21.89;66.13;100101.91;677810;29;1158;-95
2023/09/18 00:33:16;;;;;;;9.25;6.70;;;;;;;21.90;66.10;100110.75;674880;29;1247;-95
2023/09/18 00:33:38;;;;;;;10.50;6.93;;;;;;;21.86;66.04;100099.34;675244;29;1248;-95
2023/09/18 00:33:58;;;;;;;8.43;6.28;;;;;;;21.87;66.09;100101.09;680510;29;1233;-96
2023/09/18 00:34:19;;;;;;;8.50;6.55;;;;;;;21.88;66.35;100108.13;672755;29;1264;-95
2023/09/18 00:34:40;;;;;;;7.22;6.28;;;;;;;21.84;66.27;100103.84;680279;29;1315;-96
2023/09/18 00:35:01;;;;;;;7.95;6.50;;;;;;;21.91;66.17;100113.38;679936;29;1961;-95
2023/09/18 00:35:23;;;;;;;7.75;6.20;;;;;;;21.85;66.36;100112.66;680427;29;1210;-96
2023/09/18 00:35:51;;;;;;;9.00;6.43;;;;;;;21.88;66.22;100118.75;679924;29;1237;-95
2023/09/18 00:36:12;;;;;;;10.48;6.30;;;;;;;21.85;66.21;100108.22;674879;29;1385;-96
2023/09/18 00:36:32;;;;;;;11.20;6.90;;;;;;;21.84;66.29;100106.50;678032;29;1194;-95
2023/09/18 00:36:54;;;;;;;9.32;6.80;;;;;;;21.86;66.20;100109.97;680449;29;1132;-95
2023/09/18 00:37:17;;;;;;;8.98;6.90;;;;;;;21.86;66.24;100107.31;675369;29;1314;-95
2023/09/18 00:37:39;;;;;;;8.30;6.60;;;;;;;21.88;66.00;100107.28;677409;29;1287;-96
2023/09/18 00:38:03;;;;;;;8.52;6.80;;;;;;;21.84;66.17;100101.19;677796;29;1487;-95
2023/09/18 00:38:24;;;;;;;8.77;6.65;;;;;;;21.85;66.07;100102.03;675254;29;1266;-95
2023/09/18 00:38:44;;;;;;;10.23;6.80;;;;;;;21.84;66.31;100097.66;680324;29;1190;-95
2023/09/18 00:39:05;;;;;;;10.82;6.72;;;;;;;21.86;65.94;100099.34;674974;29;1222;-96
2023/09/18 00:39:26;;;;;;;10.50;6.60;;;;;;;21.82;66.11;100097.69;677980;29;1194;-96
2023/09/18 00:39:49;;;;;;;7.97;6.15;;;;;;;21.85;66.33;100104.69;672492;29;1319;-95
2023/09/18 00:40:11;;;;;;;7.30;5.95;;;;;;;21.81;66.29;100093.28;669823;29;1439;-95
2023/09/18 00:40:32;;;;;;;8.88;6.60;;;;;;;21.83;66.21;100099.41;674851;29;1316;-96
2023/09/18 00:40:52;;;;;;;9.30;6.82;;;;;;;21.85;66.29;100102.03;680372;29;1157;-95
2023/09/18 00:41:13;;;;;;;9.07;6.55;;;;;;;21.82;66.29;100097.69;674864;29;1284;-95
2023/09/18 00:41:34;;;;;;;7.75;6.20;;;;;;;21.78;66.22;100099.56;675182;29;1282;-95
2023/09/18 00:41:55;;;;;;;8.37;6.40;;;;;;;21.81;66.17;100095.09;680458;29;1144;-95
2023/09/18 00:42:17;;;;;;;8.25;6.72;;;;;;;21.80;66.35;100096.00;682319;29;1218;-94
2023/09/18 00:42:38;;;;;;;7.57;6.53;;;;;;;21.83;66.20;100109.19;677809;29;1375;-95
2023/09/18 00:42:59;;;;;;;6.90;6.20;;;;;;;21.81;66.32;100098.59;677842;29;1289;-94
2023/09/18 00:43:21;;;;;;;6.40;5.80;;;;;;;21.79;66.37;100103.09;677677;29;1272;-95
2023/09/18 00:43:42;;;;;;;6.60;5.93;;;;;;;21.83;66.30;100099.41;680699;29;1300;-95
2023/09/18 00:44:05;;;;;;;7.70;6.13;;;;;;;21.81;66.32;100098.59;682899;28;1308;-95
2023/09/18 00:44:28;;;;;;;8.25;6.22;;;;;;;21.77;66.41;100091.66;677743;29;1350;-95
2023/09/18 00:44:50;;;;;;;6.93;5.90;;;;;;;21.79;66.25;100103.09;675119;29;1227;-95
2023/09/18 00:45:11;;;;;;;6.10;5.50;;;;;;;21.78;66.26;100096.91;675115;29;1314;-94
2023/09/18 00:45:32;;;;;;;6.65;5.95;;;;;;;21.80;66.35;100103.97;674752;29;1342;-95
2023/09/18 00:45:53;;;;;;;6.90;5.90;;;;;;;21.81;66.19;100106.56;675144;29;1255;-96
2023/09/18 00:46:14;;;;;;;6.90;6.18;;;;;;;21.78;66.25;100090.75;674604;29;1395;-95
2023/09/18 00:46:35;;;;;;;6.65;5.90;;;;;;;21.77;66.24;100089.84;677712;29;1234;-95
2023/09/18 00:46:56;;;;;;;7.40;6.60;;;;;;;21.78;66.31;100101.34;672797;29;1319;-94
2023/09/18 00:47:18;;;;;;;8.52;6.60;;;;;;;21.79;66.21;100092.47;669923;29;1172;-94
2023/09/18 00:47:39;;;;;;;9.00;6.60;;;;;;;21.78;66.27;100086.28;680026;29;1377;-95
2023/09/18 00:48:00;;;;;;;9.13;6.45;;;;;;;21.81;66.35;100092.44;677792;29;1409;-95
2023/09/18 00:48:21;;;;;;;9.15;6.57;;;;;;;21.71;66.40;100076.75;672190;29;1280;-95
2023/09/18 00:48:43;;;;;;;8.32;6.63;;;;;;;21.74;66.41;100084.66;675244;29;1340;-94
2023/09/18 00:49:04;;;;;;;9.30;7.00;;;;;;;21.79;66.47;100092.47;677596;29;1302;-96
2023/09/18 00:49:24;;;;;;;7.75;6.70;;;;;;;21.75;66.40;100083.72;677761;29;1131;-96
2023/09/18 00:49:48;;;;;;;8.25;6.53;;;;;;;21.73;66.40;100079.38;672556;29;1290;-95
2023/09/18 00:50:13;;;;;;;7.70;6.10;;;;;;;21.75;66.42;100082.84;674608;29;1403;-96
2023/09/18 00:50:34;;;;;;;7.90;6.57;;;;;;;21.72;66.31;100069.66;680304;29;1232;-95
2023/09/18 00:50:56;;;;;;;8.02;6.72;;;;;;;21.67;66.33;100067.16;682372;29;1210;-95
2023/09/18 00:51:17;;;;;;;8.15;6.70;;;;;;;21.68;66.46;100065.38;682853;29;1269;-96
2023/09/18 00:51:38;;;;;;;8.35;6.43;;;;;;;21.73;66.78;100076.72;685809;28;1225;-95
2023/09/18 00:51:59;;;;;;;7.35;6.05;;;;;;;21.69;66.42;100069.78;677730;29;1189;-96
2023/09/18 00:52:21;;;;;;;6.85;5.53;;;;;;;21.72;66.51;100069.66;674286;29;1184;-95
2023/09/18 00:52:43;;;;;;;14.52;5.82;;;;;;;21.74;66.54;100076.69;677832;29;1351;-95
2023/09/18 00:53:04;;;;;;;15.82;6.63;;;;;;;21.73;66.35;100079.38;675100;29;1343;-96
2023/09/18 00:53:26;;;;;;;17.17;7.15;;;;;;;21.73;66.45;100082.03;675069;29;1329;-95
2023/09/18 00:53:48;;;;;;;11.25;6.90;;;;;;;21.71;66.33;100075.91;675301;29;1243;-95
2023/09/18 00:54:11;;;;;;;10.88;6.65;;;;;;;21.66;66.43;100059.22;676877;29;1388;-95
2023/09/18 00:54:34;;;;;;;12.93;6.45;;;;;;;21.69;66.34;100069.78;677888;29;827;-96
2023/09/18 00:54:55;;;;;;;13.07;6.60;;;;;;;21.71;66.46;100062.63;677635;29;1911;-95
2023/09/18 00:55:16;;;;;;;9.43;6.70;;;;;;;21.72;66.56;100064.38;682945;29;1262;-94
2023/09/18 00:55:38;;;;;;;9.40;6.90;;;;;;;21.74;66.31;100073.16;675063;29;1369;-95
2023/09/18 00:56:00;;;;;;;9.65;6.93;;;;;;;21.69;66.52;100060.00;674903;29;1199;-95
2023/09/18 00:56:21;;;;;;;9.32;6.70;;;;;;;21.73;66.37;100074.06;672375;29;1357;-96
2023/09/18 00:56:42;;;;;;;10.10;6.57;;;;;;;21.71;66.34;100062.63;677923;29;1167;-96
2023/09/18 00:57:03;;;;;;;11.02;6.32;;;;;;;21.73;66.57;100071.41;680222;29;1342;-95
2023/09/18 00:57:24;;;;;;;11.45;6.38;;;;;;;21.74;66.47;100075.81;677707;29;1376;-95
2023/09/18 00:57:45;;;;;;;10.57;6.40;;;;;;;21.71;66.52;100070.59;675161;29;1249;-95
2023/09/18 00:58:07;;;;;;;9.60;6.90;;;;;;;21.69;66.45;100061.81;680348;29;1205;-95
2023/09/18 00:58:28;;;;;;;9.27;7.40;;;;;;;21.67;66.34;100055.66;677627;29;1551;-95
2023/09/18 00:58:50;;;;;;;9.02;7.47;;;;;;;21.67;66.40;100055.66;675272;29;1177;-96
2023/09/18 00:59:12;;;;;;;8.38;6.90;;;;;;;21.69;66.53;100059.16;680305;29;1361;-94
2023/09/18 00:59:33;;;;;;;8.60;6.78;;;;;;;21.69;66.48;100059.16;672644;29;1420;-94
2023/09/18 00:59:54;;;;;;;13.55;7.00;;;;;;;21.73;66.56;100060.78;677805;29;1325;-95
2023/09/18 01:00:17;;;;;;;14.73;7.40;;;;;;;21.72;66.59;100059.06;677707;29;1202;-95
2023/09/18 01:00:40;;;;;;;10.65;7.25;;;;;;;21.76;66.41;100048.28;677843;29;1299;-95
2023/09/18 01:01:01;;;;;;;8.93;7.03;;;;;;;21.86;65.80;100051.53;672156;29;1237;-96
2023/09/18 01:01:22;;;;;;;7.65;6.65;;;;;;;21.85;65.93;100055.13;672415;29;1234;-96
2023/09/18 01:01:45;;;;;;;8.25;6.72;;;;;;;21.77;66.09;100046.50;674892;29;1220;-95
2023/09/18 01:02:06;;;;;;;8.35;6.10;;;;;;;21.79;66.22;100060.59;675092;29;1230;-95
2023/09/18 01:02:27;;;;;;;9.20;6.40;;;;;;;21.72;66.28;100048.44;672644;29;1350;-96
2023/09/18 01:02:49;;;;;;;8.93;6.30;;;;;;;21.66;66.45;100040.66;677886;29;1103;-95
2023/09/18 01:03:10;;;;;;;7.65;6.13;;;;;;;21.72;66.37;100048.44;674935;29;1367;-95
2023/09/18 01:03:31;;;;;;;7.38;6.38;;;;;;;21.71;66.39;100046.69;674515;29;1314;-95
2023/09/18 01:03:53;;;;;;;8.00;6.43;;;;;;;21.69;66.29;100053.84;680392;29;1265;-95
2023/09/18 01:04:16;;;;;;;9.02;6.88;;;;;;;21.69;66.42;100045.88;674438;29;1215;-95
2023/09/18 01:04:37;;;;;;;9.35;6.70;;;;;;;21.70;66.52;100055.59;672517;29;1434;-96
2023/09/18 01:04:58;;;;;;;8.40;6.40;;;;;;;21.73;66.49;100055.47;674792;29;1315;-96
2023/09/18 01:05:20;;;;;;;7.47;6.07;;;;;;;21.72;66.65;100059.94;680272;29;1186;-96
2023/09/18 01:05:40;;;;;;;7.13;6.20;;;;;;;21.66;66.47;100049.50;675196;29;1230;-95
2023/09/18 01:06:01;;;;;;;10.23;6.40;;;;;;;21.67;66.52;100045.03;677070;29;1152;-94
2023/09/18 01:06:27;;;;;;;11.25;6.82;;;;;;;21.64;66.65;100046.03;682844;29;1163;-95
2023/09/18 01:06:49;;;;;;;12.45;7.00;;;;;;;21.64;66.50;100044.22;677777;29;1213;-95
2023/09/18 01:07:10;;;;;;;8.57;6.80;;;;;;;21.71;66.50;100049.34;677699;29;1166;-95
2023/09/18 01:07:30;;;;;;;8.43;6.35;;;;;;;21.69;66.45;100051.19;680444;29;1328;-95
2023/09/18 01:07:51;;;;;;;8.20;6.40;;;;;;;21.66;66.62;100046.84;680431;29;1158;-95
2023/09/18 01:08:12;;;;;;;8.63;6.55;;;;;;;21.66;66.58;100052.16;680134;29;1238;-95
2023/09/18 01:08:33;;;;;;;8.30;6.78;;;;;;;21.67;66.59;100045.03;682422;29;1197;-96
2023/09/18 01:08:54;;;;;;;7.90;6.70;;;;;;;21.62;66.43;100040.75;675172;29;1151;-95
2023/09/18 01:09:18;;;;;;;8.32;6.85;;;;;;;21.61;66.46;100036.34;677255;29;1369;-96
2023/09/18 01:09:43;;;;;;;10.32;6.70;;;;;;;21.62;66.63;100038.09;677825;29;1246;-96
2023/09/18 01:10:04;;;;;;;10.38;6.30;;;;;;;21.66;66.84;100048.59;674924;29;1282;-95
2023/09/18 01:10:34;;;;;;;10.45;6.43;;;;;;;21.63;66.78;100037.19;677561;29;1285;-95
2023/09/18 01:11:22;;;;;;;8.18;6.30;;;;;;;21.61;66.65;100035.47;677725;29;1230;-96
2023/09/18 01:11:58;;;;;;;9.32;6.10;;;;;;;21.66;66.71;100045.94;674779;29;1456;-95
2023/09/18 01:12:27;;;;;;;11.43;6.53;;;;;;;21.54;66.54;100023.31;672393;29;1085;-95
2023/09/18 01:13:05;;;;;;;9.23;6.60;;;;;;;21.59;66.63;100027.53;677843;29;1186;-96
2023/09/18 01:13:38;;;;;;;7.90;6.18;;;;;;;21.55;66.65;100023.25;677733;29;1096;-96
2023/09/18 01:14:25;;;;;;;7.88;6.35;;;;;;;21.53;66.64;100014.47;670101;29;1415;-96
2023/09/18 01:14:55;;;;;;;7.53;6.40;;;;;;;21.64;66.68;100036.25;670284;29;1298;-95
2023/09/18 01:15:24;;;;;;;7.88;6.35;;;;;;;21.63;66.55;100028.31;672333;29;1307;-95
2023/09/18 01:15:57;;;;;;;9.50;6.65;;;;;;;21.61;66.59;100027.50;675071;29;1306;-96
2023/09/18 01:16:27;;;;;;;9.43;6.55;;;;;;;21.55;66.67;100020.59;674922;29;1313;-96
2023/09/18 01:16:54;;;;;;;8.30;6.22;;;;;;;21.62;66.63;100032.78;677831;29;1303;-95
2023/09/18 01:17:16;;;;;;;8.35;6.38;;;;;;;21.54;66.90;100012.69;677639;29;1115;-95
2023/09/18 01:17:40;;;;;;;9.40;6.10;;;;;;;21.58;66.83;100025.81;674977;29;1476;-94
2023/09/18 01:18:03;;;;;;;8.02;5.70;;;;;;;21.54;66.59;100015.34;677586;29;1198;-95
2023/09/18 01:18:23;;;;;;;8.68;5.68;;;;;;;21.56;66.52;100022.34;672519;29;1274;-95
2023/09/18 01:18:51;;;;;;;7.82;5.78;;;;;;;21.54;66.79;100010.91;675142;29;1284;-96
2023/09/18 01:19:12;;;;;;;8.00;6.20;;;;;;;21.55;66.67;100019.72;674297;29;1208;-95
2023/09/18 01:19:46;;;;;;;9.15;6.10;;;;;;;21.54;66.60;100021.53;672714;29;1306;-95
2023/09/18 01:20:11;;;;;;;8.48;5.60;;;;;;;21.53;66.56;100018.91;672394;29;1200;-95
2023/09/18 01:20:31;;;;;;;9.00;6.00;;;;;;;21.48;66.49;100014.59;672743;29;1452;-96
2023/09/18 01:20:52;;;;;;;9.93;6.77;;;;;;;21.48;66.50;100006.63;674899;29;1249;-95
2023/09/18 01:21:12;;;;;;;8.20;6.53;;;;;;;21.50;66.62;100014.56;675001;29;1168;-95
2023/09/18 01:21:33;;;;;;;7.23;6.53;;;;;;;21.50;66.71;100014.56;675152;29;1172;-96
2023/09/18 01:21:54;;;;;;;6.72;6.07;;;;;;;21.46;66.84;100005.78;677730;29;1282;-95
2023/09/18 01:22:18;;;;;;;8.90;6.50;;;;;;;21.50;66.63;100015.44;680178;29;1245;-95
2023/09/18 01:22:38;;;;;;;9.32;5.90;;;;;;;21.45;66.43;100008.50;680295;29;1427;-95
2023/09/18 01:22:59;;;;;;;11.10;6.00;;;;;;;21.52;66.83;100014.53;679709;29;1186;-96
2023/09/18 01:23:20;;;;;;;9.60;6.10;;;;;;;21.48;66.68;100011.06;677527;29;1222;-96
2023/09/18 01:23:41;;;;;;;9.90;6.47;;;;;;;21.47;66.70;100012.81;675195;29;1285;-95
2023/09/18 01:24:02;;;;;;;7.97;6.13;;;;;;;21.51;66.74;100016.28;677960;29;1177;-96
2023/09/18 01:24:22;;;;;;;7.97;6.05;;;;;;;21.50;66.74;100014.56;677391;29;1214;-95
2023/09/18 01:24:44;;;;;;;7.00;5.87;;;;;;;21.48;66.68;100008.41;682507;29;1284;-95
2023/09/18 01:25:06;;;;;;;6.75;5.90;;;;;;;21.50;66.67;100014.56;677600;29;1206;-95
2023/09/18 01:25:27;;;;;;;7.28;5.95;;;;;;;21.45;66.56;100005.84;675022;29;1112;-95
2023/09/18 01:25:48;;;;;;;7.93;6.00;;;;;;;21.43;66.81;100000.56;675320;29;1313;-95
2023/09/18 01:26:09;;;;;;;8.63;6.35;;;;;;;21.53;66.57;100016.25;674446;29;1304;-95
2023/09/18 01:26:30;;;;;;;8.35;6.47;;;;;;;21.55;66.75;100014.41;672825;29;1291;-95
2023/09/18 01:26:51;;;;;;;8.02;6.80;;;;;;;21.53;66.46;100003.88;672521;29;1549;-95
2023/09/18 01:27:14;;;;;;;7.70;6.60;;;;;;;21.52;66.51;100002.13;672484;29;1243;-95
2023/09/18 01:27:34;;;;;;;8.18;6.88;;;;;;;21.52;66.69;100010.09;677794;29;1250;-96
2023/09/18 01:27:55;;;;;;;13.93;6.97;;;;;;;21.48;66.77;100008.41;677747;29;1216;-95
2023/09/18 01:28:16;;;;;;;14.03;6.93;;;;;;;21.49;66.74;100010.16;674788;29;1205;-95
2023/09/18 01:28:37;;;;;;;15.37;6.57;;;;;;;21.47;66.77;100014.63;677994;29;1210;-95
2023/09/18 01:28:57;;;;;;;9.80;6.57;;;;;;;21.43;66.89;99997.03;680371;29;1181;-95
2023/09/18 01:29:19;;;;;;;10.23;6.95;;;;;;;21.52;66.89;100015.41;675046;29;1215;-95
2023/09/18 01:29:40;;;;;;;9.30;6.97;;;;;;;21.53;66.73;100006.53;671719;29;1277;-94
2023/09/18 01:30:01;;;;;;;9.45;6.63;;;;;;;21.53;66.48;100001.22;674660;29;1240;-95
2023/09/18 01:30:24;;;;;;;8.70;6.30;;;;;;;21.55;66.31;100004.69;677739;29;1381;-95
2023/09/18 01:30:45;;;;;;;16.55;6.13;;;;;;;21.55;66.48;99994.06;680349;29;1241;-96
2023/09/18 01:31:06;;;;;;;26.88;6.25;;;;;;;21.66;66.29;100014.09;677715;29;1154;-95
2023/09/18 01:31:27;;;;;;;27.48;6.30;;;;;;;21.67;66.27;100007.88;679554;29;1239;-95
2023/09/18 01:31:48;;;;;;;8.60;6.38;;;;;;;21.63;66.15;99996.47;675106;29;1381;-95
2023/09/18 01:32:09;;;;;;;7.65;6.35;;;;;;;21.67;66.17;100007.88;680120;29;1261;-95
2023/09/18 01:32:32;;;;;;;7.90;6.40;;;;;;;21.60;66.26;99992.16;677956;29;1241;-95
2023/09/18 01:32:54;;;;;;;9.45;6.53;;;;;;;21.67;66.26;100008.75;677305;29;1217;-95
2023/09/18 01:33:15;;;;;;;8.75;6.45;;;;;;;21.63;66.25;100005.31;675115;29;1202;-95
2023/09/18 01:33:38;;;;;;;9.07;6.50;;;;;;;21.68;66.32;100012.28;674516;29;1268;-95
2023/09/18 01:34:03;;;;;;;7.95;6.22;;;;;;;21.69;66.13;100008.72;677672;29;1333;-96
2023/09/18 01:34:31;;;;;;;8.38;6.25;;;;;;;21.69;66.24;100011.38;672650;29;1228;-95
2023/09/18 01:34:54;;;;;;;10.95;6.95;;;;;;;21.66;66.07;100000.81;677742;29;1295;-95
2023/09/18 01:35:16;;;;;;;11.65;7.30;;;;;;;21.70;66.21;100011.28;680075;29;1270;-95
2023/09/18 01:35:37;;;;;;;10.88;7.18;;;;;;;21.67;66.20;100006.09;677757;29;1211;-95
2023/09/18 01:36:01;;;;;;;9.57;6.80;;;;;;;21.69;66.15;100006.91;675129;29;1284;-95
2023/09/18 01:36:23;;;;;;;9.85;6.85;;;;;;;21.67;66.11;99999.91;675358;29;1096;-95
2023/09/18 01:36:44;;;;;;;11.63;6.60;;;;;;;21.60;66.10;99988.63;675711;29;1338;-95
2023/09/18 01:37:08;;;;;;;11.50;6.75;;;;;;;21.63;66.19;99992.03;678142;29;1165;-95
2023/09/18 01:41:32;;;;;;;8.07;6.33;;;;;;;21.64;65.96;99999.09;683783;29;682;-95
2023/09/18 01:41:53;;;;;;;8.15;6.80;;;;;;;21.64;66.20;99999.09;680357;29;1281;-95
2023/09/18 01:42:14;;;;;;;7.28;6.10;;;;;;;21.61;66.00;99999.19;675131;29;1204;-95
2023/09/18 01:42:35;;;;;;;7.05;5.65;;;;;;;21.66;66.03;100000.81;675644;29;1219;-96
2023/09/18 01:42:56;;;;;;;7.72;5.53;;;;;;;21.66;66.04;100006.13;674805;29;1242;-95
2023/09/18 01:43:17;;;;;;;8.32;5.65;;;;;;;21.59;66.12;99990.38;675528;29;1203;-96
2023/09/18 01:43:38;;;;;;;8.35;5.80;;;;;;;21.68;66.22;99999.00;677661;29;1358;-95
2023/09/18 01:43:59;;;;;;;8.40;5.90;;;;;;;21.66;66.05;100003.47;675493;29;1236;-95
2023/09/18 01:44:20;;;;;;;8.20;6.38;;;;;;;21.65;65.96;99999.97;675538;29;1250;-94
2023/09/18 01:44:43;;;;;;;8.80;6.65;;;;;;;21.53;66.28;99993.25;680720;29;1364;-94
2023/09/18 01:45:05;;;;;;;9.23;7.18;;;;;;;21.63;66.29;100002.66;680712;29;1342;-95
2023/09/18 01:45:26;;;;;;;8.65;6.93;;;;;;;21.62;66.32;99995.63;678276;29;1607;-95
2023/09/18 01:45:47;;;;;;;8.57;6.87;;;;;;;21.64;66.15;99995.59;678230;29;1269;-96
2023/09/18 01:46:09;;;;;;;8.02;6.13;;;;;;;21.62;66.44;99992.06;680352;29;1459;-95
2023/09/18 01:46:35;;;;;;;7.97;6.32;;;;;;;21.66;65.96;99992.84;675164;29;1289;-95
2023/09/18 01:47:02;;;;;;;10.38;7.22;;;;;;;21.67;66.10;100005.22;677592;29;1347;-94
2023/09/18 01:47:23;;;;;;;10.05;7.10;;;;;;;21.62;66.20;99998.28;678136;29;1317;-96
2023/09/18 01:47:46;;;;;;;10.02;6.72;;;;;;;21.63;66.11;100002.66;674855;29;1125;-95
2023/09/18 01:48:06;;;;;;;8.80;6.43;;;;;;;21.64;66.13;100004.41;680814;29;1230;-95
2023/09/18 01:48:27;;;;;;;9.80;6.80;;;;;;;21.61;66.02;100003.63;675642;29;1230;-96
2023/09/18 01:48:48;;;;;;;9.07;6.47;;;;;;;21.63;66.06;99997.34;680925;29;835;-95
2023/09/18 01:49:09;;;;;;;9.88;6.50;;;;;;;21.63;66.39;100002.66;683361;29;1118;-96
2023/09/18 01:49:34;;;;;;;9.70;6.22;;;;;;;21.58;66.07;99993.97;675654;29;1318;-95